sensor_id;sensor_type;location;lat;lon;timestamp;P1;durP1;ratioP1;P2;durP2;ratioP2
50379;SDS011;37474;59.468;18.040;2023-04-03T00:01:40;13.00;;;1.67;;
50379;SDS011;37474;59.468;18.040;2023-04-03T00:04:09;11.80;;;1.73;;
50379;SDS011;37474;59.468;18.040;2023-04-03T00:06:42;8.47;;;1.50;;
50379;SDS011;37474;59.468;18.040;2023-04-03T00:09:09;11.63;;;1.58;;
50379;SDS011;37474;59.468;18.040;2023-04-03T00:11:37;5.77;;;1.70;;
50379;SDS011;37474;59.468;18.040;2023-04-03T00:14:09;9.07;;;1.75;;
50379;SDS011;37474;59.468;18.040;2023-04-03T00:16:36;5.97;;;1.40;;
50379;SDS011;37474;59.468;18.040;2023-04-03T00:19:04;7.43;;;1.83;;
50379;SDS011;37474;59.468;18.040;2023-04-03T00:21:37;8.70;;;1.73;;
50379;SDS011;37474;59.468;18.040;2023-04-03T00:24:05;8.97;;;2.23;;
50379;SDS011;37474;59.468;18.040;2023-04-03T00:26:33;12.20;;;2.20;;
50379;SDS011;37474;59.468;18.040;2023-04-03T00:29:05;11.52;;;1.85;;
50379;SDS011;37474;59.468;18.040;2023-04-03T00:31:33;9.90;;;1.80;;
50379;SDS011;37474;59.468;18.040;2023-04-03T00:34:01;12.23;;;2.17;;
50379;SDS011;37474;59.468;18.040;2023-04-03T00:36:31;8.98;;;1.88;;
50379;SDS011;37474;59.468;18.040;2023-04-03T00:39:03;11.87;;;2.10;;
50379;SDS011;37474;59.468;18.040;2023-04-03T00:41:36;13.50;;;2.07;;
50379;SDS011;37474;59.468;18.040;2023-04-03T00:44:18;6.65;;;2.22;;
50379;SDS011;37474;59.468;18.040;2023-04-03T00:46:51;5.60;;;1.50;;
50379;SDS011;37474;59.468;18.040;2023-04-03T00:49:18;9.25;;;1.83;;
50379;SDS011;37474;59.468;18.040;2023-04-03T00:51:47;6.47;;;1.80;;
50379;SDS011;37474;59.468;18.040;2023-04-03T00:54:20;6.87;;;1.70;;
50379;SDS011;37474;59.468;18.040;2023-04-03T00:56:49;8.73;;;1.90;;
50379;SDS011;37474;59.468;18.040;2023-04-03T00:59:21;7.33;;;1.67;;
50379;SDS011;37474;59.468;18.040;2023-04-03T01:01:54;10.17;;;2.27;;
50379;SDS011;37474;59.468;18.040;2023-04-03T01:04:26;7.35;;;1.52;;
50379;SDS011;37474;59.468;18.040;2023-04-03T01:06:55;8.13;;;1.90;;
50379;SDS011;37474;59.468;18.040;2023-04-03T01:09:30;13.83;;;2.80;;
50379;SDS011;37474;59.468;18.040;2023-04-03T01:12:12;11.10;;;1.93;;
50379;SDS011;37474;59.468;18.040;2023-04-03T01:14:44;8.00;;;1.33;;
50379;SDS011;37474;59.468;18.040;2023-04-03T01:17:29;8.27;;;1.43;;
50379;SDS011;37474;59.468;18.040;2023-04-03T01:20:20;9.03;;;1.57;;
50379;SDS011;37474;59.468;18.040;2023-04-03T01:23:17;8.13;;;1.40;;
50379;SDS011;37474;59.468;18.040;2023-04-03T01:25:56;9.63;;;1.88;;
50379;SDS011;37474;59.468;18.040;2023-04-03T01:28:28;12.10;;;1.73;;
50379;SDS011;37474;59.468;18.040;2023-04-03T01:31:02;9.83;;;1.60;;
50379;SDS011;37474;59.468;18.040;2023-04-03T01:33:39;8.10;;;1.67;;
50379;SDS011;37474;59.468;18.040;2023-04-03T01:36:13;7.80;;;1.50;;
50379;SDS011;37474;59.468;18.040;2023-04-03T01:38:42;11.00;;;2.57;;
50379;SDS011;37474;59.468;18.040;2023-04-03T01:41:10;3.97;;;1.30;;
50379;SDS011;37474;59.468;18.040;2023-04-03T01:43:42;16.63;;;2.35;;
50379;SDS011;37474;59.468;18.040;2023-04-03T01:46:10;11.13;;;1.67;;
50379;SDS011;37474;59.468;18.040;2023-04-03T01:48:37;8.57;;;1.60;;
50379;SDS011;37474;59.468;18.040;2023-04-03T01:51:11;8.10;;;1.63;;
50379;SDS011;37474;59.468;18.040;2023-04-03T01:53:39;5.53;;;1.60;;
50379;SDS011;37474;59.468;18.040;2023-04-03T01:56:07;9.20;;;2.00;;
50379;SDS011;37474;59.468;18.040;2023-04-03T01:58:39;6.95;;;1.40;;
50379;SDS011;37474;59.468;18.040;2023-04-03T02:01:09;9.73;;;1.60;;
50379;SDS011;37474;59.468;18.040;2023-04-03T02:03:37;6.60;;;1.50;;
50379;SDS011;37474;59.468;18.040;2023-04-03T02:06:10;9.02;;;1.90;;
50379;SDS011;37474;59.468;18.040;2023-04-03T02:08:40;9.07;;;1.63;;
50379;SDS011;37474;59.468;18.040;2023-04-03T02:11:10;7.25;;;1.30;;
50379;SDS011;37474;59.468;18.040;2023-04-03T02:13:37;10.30;;;1.70;;
50379;SDS011;37474;59.468;18.040;2023-04-03T02:16:06;7.03;;;1.40;;
50379;SDS011;37474;59.468;18.040;2023-04-03T02:18:39;10.23;;;1.40;;
50379;SDS011;37474;59.468;18.040;2023-04-03T02:21:08;9.10;;;1.50;;
50379;SDS011;37474;59.468;18.040;2023-04-03T02:23:36;8.07;;;1.57;;
50379;SDS011;37474;59.468;18.040;2023-04-03T02:26:09;4.45;;;1.25;;
50379;SDS011;37474;59.468;18.040;2023-04-03T02:28:40;8.23;;;1.50;;
50379;SDS011;37474;59.468;18.040;2023-04-03T02:31:10;6.35;;;1.83;;
50379;SDS011;37474;59.468;18.040;2023-04-03T02:33:40;12.43;;;1.40;;
50379;SDS011;37474;59.468;18.040;2023-04-03T02:36:09;6.07;;;1.50;;
50379;SDS011;37474;59.468;18.040;2023-04-03T02:38:44;9.97;;;1.67;;
50379;SDS011;37474;59.468;18.040;2023-04-03T02:41:14;5.28;;;1.33;;
50379;SDS011;37474;59.468;18.040;2023-04-03T02:43:42;10.38;;;1.88;;
50379;SDS011;37474;59.468;18.040;2023-04-03T02:46:11;6.28;;;1.60;;
50379;SDS011;37474;59.468;18.040;2023-04-03T02:48:43;14.75;;;1.90;;
50379;SDS011;37474;59.468;18.040;2023-04-03T02:51:12;5.35;;;1.20;;
50379;SDS011;37474;59.468;18.040;2023-04-03T02:53:42;7.43;;;1.57;;
50379;SDS011;37474;59.468;18.040;2023-04-03T02:56:12;8.27;;;1.50;;
50379;SDS011;37474;59.468;18.040;2023-04-03T02:58:45;9.23;;;1.63;;
50379;SDS011;37474;59.468;18.040;2023-04-03T03:01:14;10.57;;;1.70;;
50379;SDS011;37474;59.468;18.040;2023-04-03T03:03:42;7.68;;;1.20;;
50379;SDS011;37474;59.468;18.040;2023-04-03T03:06:11;15.57;;;1.80;;
50379;SDS011;37474;59.468;18.040;2023-04-03T03:08:44;10.43;;;1.47;;
50379;SDS011;37474;59.468;18.040;2023-04-03T03:11:16;9.87;;;2.53;;
50379;SDS011;37474;59.468;18.040;2023-04-03T03:13:44;10.32;;;3.20;;
50379;SDS011;37474;59.468;18.040;2023-04-03T03:16:11;19.37;;;4.20;;
50379;SDS011;37474;59.468;18.040;2023-04-03T03:18:43;10.00;;;1.27;;
50379;SDS011;37474;59.468;18.040;2023-04-03T03:21:13;10.68;;;1.60;;
50379;SDS011;37474;59.468;18.040;2023-04-03T03:23:41;11.93;;;1.73;;
50379;SDS011;37474;59.468;18.040;2023-04-03T03:26:11;7.90;;;1.20;;
50379;SDS011;37474;59.468;18.040;2023-04-03T03:28:39;10.67;;;1.77;;
50379;SDS011;37474;59.468;18.040;2023-04-03T03:31:09;7.80;;;1.53;;
50379;SDS011;37474;59.468;18.040;2023-04-03T03:36:10;11.50;;;1.60;;
50379;SDS011;37474;59.468;18.040;2023-04-03T03:38:39;7.27;;;1.30;;
50379;SDS011;37474;59.468;18.040;2023-04-03T03:41:11;9.50;;;1.47;;
50379;SDS011;37474;59.468;18.040;2023-04-03T03:43:40;16.63;;;1.50;;
50379;SDS011;37474;59.468;18.040;2023-04-03T03:46:08;9.23;;;1.65;;
50379;SDS011;37474;59.468;18.040;2023-04-03T03:48:40;10.50;;;1.50;;
50379;SDS011;37474;59.468;18.040;2023-04-03T03:51:10;13.57;;;1.33;;
50379;SDS011;37474;59.468;18.040;2023-04-03T03:53:39;11.23;;;2.03;;
50379;SDS011;37474;59.468;18.040;2023-04-03T03:56:09;11.87;;;1.60;;
50379;SDS011;37474;59.468;18.040;2023-04-03T03:58:39;9.00;;;1.50;;
50379;SDS011;37474;59.468;18.040;2023-04-03T04:01:09;11.97;;;1.77;;
50379;SDS011;37474;59.468;18.040;2023-04-03T04:03:39;10.73;;;1.40;;
50379;SDS011;37474;59.468;18.040;2023-04-03T04:06:09;6.40;;;1.30;;
50379;SDS011;37474;59.468;18.040;2023-04-03T04:08:38;6.18;;;1.58;;
50379;SDS011;37474;59.468;18.040;2023-04-03T04:11:08;8.17;;;1.37;;
50379;SDS011;37474;59.468;18.040;2023-04-03T04:13:38;10.67;;;1.30;;
50379;SDS011;37474;59.468;18.040;2023-04-03T04:16:08;9.30;;;1.30;;
50379;SDS011;37474;59.468;18.040;2023-04-03T04:18:36;6.00;;;1.30;;
50379;SDS011;37474;59.468;18.040;2023-04-03T04:21:06;11.00;;;1.87;;
50379;SDS011;37474;59.468;18.040;2023-04-03T04:23:36;6.73;;;1.43;;
50379;SDS011;37474;59.468;18.040;2023-04-03T04:26:05;10.83;;;1.60;;
50379;SDS011;37474;59.468;18.040;2023-04-03T04:28:35;8.40;;;1.50;;
50379;SDS011;37474;59.468;18.040;2023-04-03T04:31:03;8.85;;;1.75;;
50379;SDS011;37474;59.468;18.040;2023-04-03T04:33:31;11.63;;;1.40;;
50379;SDS011;37474;59.468;18.040;2023-04-03T04:36:01;14.33;;;1.50;;
50379;SDS011;37474;59.468;18.040;2023-04-03T04:38:30;11.47;;;1.97;;
50379;SDS011;37474;59.468;18.040;2023-04-03T04:40:58;8.63;;;2.53;;
50379;SDS011;37474;59.468;18.040;2023-04-03T04:43:29;9.10;;;1.87;;
50379;SDS011;37474;59.468;18.040;2023-04-03T04:46:00;9.00;;;1.80;;
50379;SDS011;37474;59.468;18.040;2023-04-03T04:48:29;5.80;;;1.37;;
50379;SDS011;37474;59.468;18.040;2023-04-03T04:50:58;10.13;;;1.70;;
50379;SDS011;37474;59.468;18.040;2023-04-03T04:53:28;11.70;;;1.70;;
50379;SDS011;37474;59.468;18.040;2023-04-03T04:55:58;6.13;;;1.37;;
50379;SDS011;37474;59.468;18.040;2023-04-03T05:00:58;11.50;;;1.70;;
50379;SDS011;37474;59.468;18.040;2023-04-03T05:03:28;8.90;;;1.77;;
50379;SDS011;37474;59.468;18.040;2023-04-03T05:05:58;11.53;;;1.70;;
50379;SDS011;37474;59.468;18.040;2023-04-03T05:08:26;8.00;;;1.50;;
50379;SDS011;37474;59.468;18.040;2023-04-03T05:10:56;6.10;;;1.50;;
50379;SDS011;37474;59.468;18.040;2023-04-03T05:13:27;6.47;;;1.60;;
50379;SDS011;37474;59.468;18.040;2023-04-03T05:15:55;7.57;;;1.70;;
50379;SDS011;37474;59.468;18.040;2023-04-03T05:18:25;6.47;;;1.67;;
50379;SDS011;37474;59.468;18.040;2023-04-03T05:20:54;8.17;;;1.50;;
50379;SDS011;37474;59.468;18.040;2023-04-03T05:25:55;6.57;;;1.57;;
50379;SDS011;37474;59.468;18.040;2023-04-03T05:28:24;9.50;;;3.13;;
50379;SDS011;37474;59.468;18.040;2023-04-03T05:30:54;11.13;;;1.57;;
50379;SDS011;37474;59.468;18.040;2023-04-03T05:33:24;11.98;;;1.88;;
50379;SDS011;37474;59.468;18.040;2023-04-03T05:35:54;12.43;;;1.50;;
50379;SDS011;37474;59.468;18.040;2023-04-03T05:38:22;8.93;;;1.67;;
50379;SDS011;37474;59.468;18.040;2023-04-03T05:40:52;8.40;;;1.33;;
50379;SDS011;37474;59.468;18.040;2023-04-03T05:43:22;12.30;;;2.60;;
50379;SDS011;37474;59.468;18.040;2023-04-03T05:45:50;5.63;;;1.80;;
50379;SDS011;37474;59.468;18.040;2023-04-03T05:48:20;7.10;;;2.13;;
50379;SDS011;37474;59.468;18.040;2023-04-03T05:50:49;9.57;;;2.60;;
50379;SDS011;37474;59.468;18.040;2023-04-03T05:53:17;7.77;;;2.20;;
50379;SDS011;37474;59.468;18.040;2023-04-03T05:55:51;4.63;;;1.30;;
50379;SDS011;37474;59.468;18.040;2023-04-03T05:58:20;11.47;;;1.40;;
50379;SDS011;37474;59.468;18.040;2023-04-03T06:00:49;10.70;;;1.80;;
50379;SDS011;37474;59.468;18.040;2023-04-03T06:03:20;6.33;;;1.27;;
50379;SDS011;37474;59.468;18.040;2023-04-03T06:05:49;5.03;;;1.53;;
50379;SDS011;37474;59.468;18.040;2023-04-03T06:08:18;7.93;;;2.13;;
50379;SDS011;37474;59.468;18.040;2023-04-03T06:10:48;4.53;;;1.27;;
50379;SDS011;37474;59.468;18.040;2023-04-03T06:13:16;8.90;;;1.30;;
50379;SDS011;37474;59.468;18.040;2023-04-03T06:15:46;9.37;;;1.57;;
50379;SDS011;37474;59.468;18.040;2023-04-03T06:18:16;11.90;;;1.73;;
50379;SDS011;37474;59.468;18.040;2023-04-03T06:20:46;8.13;;;1.73;;
50379;SDS011;37474;59.468;18.040;2023-04-03T06:23:16;9.43;;;1.90;;
50379;SDS011;37474;59.468;18.040;2023-04-03T06:25:45;8.23;;;1.60;;
50379;SDS011;37474;59.468;18.040;2023-04-03T06:28:13;6.97;;;2.07;;
50379;SDS011;37474;59.468;18.040;2023-04-03T06:30:41;6.77;;;1.57;;
50379;SDS011;37474;59.468;18.040;2023-04-03T06:33:09;6.33;;;1.77;;
50379;SDS011;37474;59.468;18.040;2023-04-03T06:35:37;8.90;;;1.87;;
50379;SDS011;37474;59.468;18.040;2023-04-03T06:38:08;7.47;;;1.87;;
50379;SDS011;37474;59.468;18.040;2023-04-03T06:40:39;11.57;;;2.27;;
50379;SDS011;37474;59.468;18.040;2023-04-03T06:43:07;8.30;;;1.67;;
50379;SDS011;37474;59.468;18.040;2023-04-03T06:45:36;6.33;;;1.80;;
50379;SDS011;37474;59.468;18.040;2023-04-03T06:48:06;7.17;;;1.67;;
50379;SDS011;37474;59.468;18.040;2023-04-03T06:50:34;10.00;;;1.60;;
50379;SDS011;37474;59.468;18.040;2023-04-03T06:53:04;9.33;;;2.10;;
50379;SDS011;37474;59.468;18.040;2023-04-03T06:55:35;6.50;;;1.67;;
50379;SDS011;37474;59.468;18.040;2023-04-03T06:58:03;8.83;;;1.97;;
50379;SDS011;37474;59.468;18.040;2023-04-03T07:00:33;4.33;;;1.47;;
50379;SDS011;37474;59.468;18.040;2023-04-03T07:03:05;10.60;;;1.90;;
50379;SDS011;37474;59.468;18.040;2023-04-03T07:05:33;6.40;;;1.40;;
50379;SDS011;37474;59.468;18.040;2023-04-03T07:08:01;9.30;;;1.87;;
50379;SDS011;37474;59.468;18.040;2023-04-03T07:10:33;10.90;;;1.35;;
50379;SDS011;37474;59.468;18.040;2023-04-03T07:13:02;8.32;;;1.60;;
50379;SDS011;37474;59.468;18.040;2023-04-03T07:15:30;12.90;;;1.73;;
50379;SDS011;37474;59.468;18.040;2023-04-03T07:17:59;9.27;;;1.77;;
50379;SDS011;37474;59.468;18.040;2023-04-03T07:20:27;8.13;;;1.70;;
50379;SDS011;37474;59.468;18.040;2023-04-03T07:22:55;6.40;;;1.07;;
50379;SDS011;37474;59.468;18.040;2023-04-03T07:25:29;4.80;;;0.90;;
50379;SDS011;37474;59.468;18.040;2023-04-03T07:27:57;6.20;;;1.30;;
50379;SDS011;37474;59.468;18.040;2023-04-03T07:30:27;6.57;;;1.20;;
50379;SDS011;37474;59.468;18.040;2023-04-03T07:32:58;9.30;;;1.33;;
50379;SDS011;37474;59.468;18.040;2023-04-03T07:37:54;6.00;;;1.37;;
50379;SDS011;37474;59.468;18.040;2023-04-03T07:40:26;7.88;;;2.15;;
50379;SDS011;37474;59.468;18.040;2023-04-03T07:42:54;7.25;;;1.60;;
50379;SDS011;37474;59.468;18.040;2023-04-03T07:45:23;8.47;;;2.27;;
50379;SDS011;37474;59.468;18.040;2023-04-03T07:47:56;8.52;;;2.80;;
50379;SDS011;37474;59.468;18.040;2023-04-03T07:50:23;11.03;;;3.33;;
50379;SDS011;37474;59.468;18.040;2023-04-03T07:52:52;11.77;;;3.23;;
50379;SDS011;37474;59.468;18.040;2023-04-03T07:55:21;11.00;;;4.03;;
50379;SDS011;37474;59.468;18.040;2023-04-03T07:57:48;6.87;;;1.93;;
50379;SDS011;37474;59.468;18.040;2023-04-03T08:00:17;6.20;;;1.30;;
50379;SDS011;37474;59.468;18.040;2023-04-03T08:02:50;11.37;;;1.20;;
50379;SDS011;37474;59.468;18.040;2023-04-03T08:07:48;10.57;;;1.70;;
50379;SDS011;37474;59.468;18.040;2023-04-03T08:10:16;6.53;;;1.20;;
50379;SDS011;37474;59.468;18.040;2023-04-03T08:12:45;3.03;;;1.00;;
50379;SDS011;37474;59.468;18.040;2023-04-03T08:15:13;8.90;;;1.60;;
50379;SDS011;37474;59.468;18.040;2023-04-03T08:17:45;5.10;;;1.10;;
50379;SDS011;37474;59.468;18.040;2023-04-03T08:20:13;7.68;;;1.30;;
50379;SDS011;37474;59.468;18.040;2023-04-03T08:22:43;8.27;;;1.50;;
50379;SDS011;37474;59.468;18.040;2023-04-03T08:25:15;6.57;;;1.17;;
50379;SDS011;37474;59.468;18.040;2023-04-03T08:27:43;4.70;;;1.20;;
50379;SDS011;37474;59.468;18.040;2023-04-03T08:30:11;6.00;;;1.13;;
50379;SDS011;37474;59.468;18.040;2023-04-03T08:32:42;4.77;;;1.10;;
50379;SDS011;37474;59.468;18.040;2023-04-03T08:35:11;6.60;;;1.20;;
50379;SDS011;37474;59.468;18.040;2023-04-03T08:37:39;7.27;;;1.30;;
50379;SDS011;37474;59.468;18.040;2023-04-03T08:40:13;4.88;;;1.00;;
50379;SDS011;37474;59.468;18.040;2023-04-03T08:42:48;6.13;;;1.00;;
50379;SDS011;37474;59.468;18.040;2023-04-03T08:45:27;4.83;;;1.10;;
50379;SDS011;37474;59.468;18.040;2023-04-03T08:48:10;6.27;;;1.40;;
50379;SDS011;37474;59.468;18.040;2023-04-03T08:50:48;12.23;;;2.23;;
50379;SDS011;37474;59.468;18.040;2023-04-03T08:53:19;12.33;;;4.13;;
50379;SDS011;37474;59.468;18.040;2023-04-03T08:55:55;9.53;;;2.63;;
50379;SDS011;37474;59.468;18.040;2023-04-03T08:58:24;8.63;;;1.70;;
50379;SDS011;37474;59.468;18.040;2023-04-03T09:00:58;6.17;;;1.97;;
50379;SDS011;37474;59.468;18.040;2023-04-03T09:03:29;12.40;;;1.90;;
50379;SDS011;37474;59.468;18.040;2023-04-03T09:06:00;6.20;;;1.60;;
50379;SDS011;37474;59.468;18.040;2023-04-03T09:08:31;4.10;;;1.50;;
50379;SDS011;37474;59.468;18.040;2023-04-03T09:11:13;3.00;;;1.00;;
50379;SDS011;37474;59.468;18.040;2023-04-03T09:13:48;5.53;;;1.40;;
50379;SDS011;37474;59.468;18.040;2023-04-03T09:16:32;4.30;;;0.90;;
50379;SDS011;37474;59.468;18.040;2023-04-03T09:19:09;6.57;;;1.03;;
50379;SDS011;37474;59.468;18.040;2023-04-03T09:21:47;4.17;;;0.90;;
50379;SDS011;37474;59.468;18.040;2023-04-03T09:24:15;4.65;;;1.15;;
50379;SDS011;37474;59.468;18.040;2023-04-03T09:26:47;4.78;;;1.25;;
50379;SDS011;37474;59.468;18.040;2023-04-03T09:29:23;5.50;;;1.80;;
50379;SDS011;37474;59.468;18.040;2023-04-03T09:31:52;7.20;;;1.20;;
50379;SDS011;37474;59.468;18.040;2023-04-03T09:34:30;6.83;;;1.90;;
50379;SDS011;37474;59.468;18.040;2023-04-03T09:37:04;4.30;;;1.13;;
50379;SDS011;37474;59.468;18.040;2023-04-03T09:39:48;9.73;;;1.43;;
50379;SDS011;37474;59.468;18.040;2023-04-03T09:42:21;6.87;;;1.70;;
50379;SDS011;37474;59.468;18.040;2023-04-03T09:44:54;6.00;;;1.67;;
50379;SDS011;37474;59.468;18.040;2023-04-03T09:47:24;4.40;;;1.23;;
50379;SDS011;37474;59.468;18.040;2023-04-03T09:50:08;6.20;;;1.33;;
50379;SDS011;37474;59.468;18.040;2023-04-03T09:52:48;8.40;;;1.77;;
50379;SDS011;37474;59.468;18.040;2023-04-03T09:55:25;3.97;;;1.20;;
50379;SDS011;37474;59.468;18.040;2023-04-03T09:58:00;6.57;;;1.87;;
50379;SDS011;37474;59.468;18.040;2023-04-03T10:00:31;5.30;;;1.63;;
50379;SDS011;37474;59.468;18.040;2023-04-03T10:03:05;6.23;;;1.13;;
50379;SDS011;37474;59.468;18.040;2023-04-03T10:05:52;3.97;;;1.40;;
50379;SDS011;37474;59.468;18.040;2023-04-03T10:08:24;6.27;;;1.67;;
50379;SDS011;37474;59.468;18.040;2023-04-03T10:13:53;3.97;;;1.40;;
50379;SDS011;37474;59.468;18.040;2023-04-03T10:16:33;3.73;;;1.07;;
50379;SDS011;37474;59.468;18.040;2023-04-03T10:19:11;4.55;;;1.30;;
50379;SDS011;37474;59.468;18.040;2023-04-03T10:22:02;4.50;;;1.27;;
50379;SDS011;37474;59.468;18.040;2023-04-03T10:24:43;2.73;;;0.63;;
50379;SDS011;37474;59.468;18.040;2023-04-03T10:27:21;4.83;;;0.90;;
50379;SDS011;37474;59.468;18.040;2023-04-03T10:30:02;6.40;;;0.93;;
50379;SDS011;37474;59.468;18.040;2023-04-03T10:32:43;2.30;;;0.60;;
50379;SDS011;37474;59.468;18.040;2023-04-03T10:35:25;4.77;;;0.63;;
50379;SDS011;37474;59.468;18.040;2023-04-03T10:38:04;3.60;;;0.83;;
50379;SDS011;37474;59.468;18.040;2023-04-03T10:40:42;3.10;;;0.60;;
50379;SDS011;37474;59.468;18.040;2023-04-03T10:43:17;5.00;;;0.97;;
50379;SDS011;37474;59.468;18.040;2023-04-03T10:45:59;5.10;;;0.90;;
50379;SDS011;37474;59.468;18.040;2023-04-03T10:48:33;4.80;;;0.93;;
50379;SDS011;37474;59.468;18.040;2023-04-03T10:51:14;3.47;;;0.80;;
50379;SDS011;37474;59.468;18.040;2023-04-03T10:53:55;2.47;;;0.70;;
50379;SDS011;37474;59.468;18.040;2023-04-03T10:56:30;4.60;;;0.90;;
50379;SDS011;37474;59.468;18.040;2023-04-03T10:59:07;3.13;;;1.50;;
50379;SDS011;37474;59.468;18.040;2023-04-03T11:04:13;1.80;;;0.77;;
50379;SDS011;37474;59.468;18.040;2023-04-03T11:06:49;2.97;;;0.70;;
50379;SDS011;37474;59.468;18.040;2023-04-03T11:09:25;2.70;;;0.43;;
50379;SDS011;37474;59.468;18.040;2023-04-03T11:11:55;1.57;;;0.53;;
50379;SDS011;37474;59.468;18.040;2023-04-03T11:14:31;2.73;;;1.00;;
50379;SDS011;37474;59.468;18.040;2023-04-03T11:19:39;2.60;;;0.53;;
50379;SDS011;37474;59.468;18.040;2023-04-03T11:22:16;1.93;;;0.60;;
50379;SDS011;37474;59.468;18.040;2023-04-03T11:24:56;3.45;;;0.60;;
50379;SDS011;37474;59.468;18.040;2023-04-03T11:27:33;2.93;;;0.73;;
50379;SDS011;37474;59.468;18.040;2023-04-03T11:30:11;3.80;;;0.80;;
50379;SDS011;37474;59.468;18.040;2023-04-03T11:32:54;3.27;;;0.70;;
50379;SDS011;37474;59.468;18.040;2023-04-03T11:35:42;2.20;;;0.63;;
50379;SDS011;37474;59.468;18.040;2023-04-03T11:38:15;1.63;;;0.50;;
50379;SDS011;37474;59.468;18.040;2023-04-03T11:40:50;3.97;;;0.60;;
50379;SDS011;37474;59.468;18.040;2023-04-03T11:43:25;1.60;;;0.50;;
50379;SDS011;37474;59.468;18.040;2023-04-03T11:45:58;3.27;;;0.70;;
50379;SDS011;37474;59.468;18.040;2023-04-03T11:48:42;5.13;;;0.80;;
50379;SDS011;37474;59.468;18.040;2023-04-03T12:09:56;1.20;;;0.50;;
50379;SDS011;37474;59.468;18.040;2023-04-03T12:12:31;2.10;;;0.40;;
50379;SDS011;37474;59.468;18.040;2023-04-03T12:15:17;2.40;;;0.63;;
50379;SDS011;37474;59.468;18.040;2023-04-03T12:17:52;2.13;;;0.40;;
50379;SDS011;37474;59.468;18.040;2023-04-03T12:23:27;1.63;;;0.40;;
50379;SDS011;37474;59.468;18.040;2023-04-03T12:26:03;2.30;;;0.43;;
50379;SDS011;37474;59.468;18.040;2023-04-03T12:28:38;1.27;;;0.50;;
50379;SDS011;37474;59.468;18.040;2023-04-03T12:31:09;1.90;;;0.50;;
50379;SDS011;37474;59.468;18.040;2023-04-03T12:33:46;1.30;;;0.40;;
50379;SDS011;37474;59.468;18.040;2023-04-03T12:36:27;3.67;;;0.60;;
50379;SDS011;37474;59.468;18.040;2023-04-03T12:39:03;1.97;;;0.60;;
50379;SDS011;37474;59.468;18.040;2023-04-03T12:42:09;1.40;;;0.50;;
50379;SDS011;37474;59.468;18.040;2023-04-03T12:44:47;3.63;;;0.70;;
50379;SDS011;37474;59.468;18.040;2023-04-03T12:47:27;1.70;;;0.50;;
50379;SDS011;37474;59.468;18.040;2023-04-03T12:50:02;3.00;;;0.50;;
50379;SDS011;37474;59.468;18.040;2023-04-03T12:52:33;2.07;;;0.53;;
50379;SDS011;37474;59.468;18.040;2023-04-03T12:55:11;3.47;;;0.73;;
50379;SDS011;37474;59.468;18.040;2023-04-03T12:57:49;4.03;;;0.60;;
50379;SDS011;37474;59.468;18.040;2023-04-03T13:00:30;3.07;;;1.37;;
50379;SDS011;37474;59.468;18.040;2023-04-03T13:03:02;1.37;;;0.50;;
50379;SDS011;37474;59.468;18.040;2023-04-03T13:05:34;1.30;;;0.32;;
50379;SDS011;37474;59.468;18.040;2023-04-03T13:08:04;1.40;;;0.50;;
50379;SDS011;37474;59.468;18.040;2023-04-03T13:10:43;2.03;;;0.50;;
50379;SDS011;37474;59.468;18.040;2023-04-03T13:13:16;1.47;;;0.37;;
50379;SDS011;37474;59.468;18.040;2023-04-03T13:15:46;1.23;;;0.40;;
50379;SDS011;37474;59.468;18.040;2023-04-03T13:18:27;1.92;;;0.55;;
50379;SDS011;37474;59.468;18.040;2023-04-03T13:21:00;5.00;;;0.50;;
50379;SDS011;37474;59.468;18.040;2023-04-03T13:23:31;2.50;;;0.57;;
50379;SDS011;37474;59.468;18.040;2023-04-03T13:26:01;3.95;;;0.40;;
50379;SDS011;37474;59.468;18.040;2023-04-03T13:28:32;5.10;;;0.80;;
50379;SDS011;37474;59.468;18.040;2023-04-03T13:31:03;3.20;;;0.67;;
50379;SDS011;37474;59.468;18.040;2023-04-03T13:33:37;3.33;;;1.00;;
50379;SDS011;37474;59.468;18.040;2023-04-03T13:36:06;1.83;;;0.57;;
50379;SDS011;37474;59.468;18.040;2023-04-03T13:38:38;4.07;;;0.57;;
50379;SDS011;37474;59.468;18.040;2023-04-03T13:41:21;4.00;;;0.60;;
50379;SDS011;37474;59.468;18.040;2023-04-03T13:44:17;2.20;;;0.60;;
50379;SDS011;37474;59.468;18.040;2023-04-03T13:46:57;2.40;;;0.50;;
50379;SDS011;37474;59.468;18.040;2023-04-03T13:49:32;1.67;;;0.60;;
50379;SDS011;37474;59.468;18.040;2023-04-03T13:52:17;1.40;;;0.50;;
50379;SDS011;37474;59.468;18.040;2023-04-03T13:54:54;2.93;;;0.70;;
50379;SDS011;37474;59.468;18.040;2023-04-03T13:57:27;2.90;;;0.70;;
50379;SDS011;37474;59.468;18.040;2023-04-03T13:59:57;3.03;;;0.63;;
50379;SDS011;37474;59.468;18.040;2023-04-03T14:02:29;1.90;;;0.60;;
50379;SDS011;37474;59.468;18.040;2023-04-03T14:05:03;2.87;;;0.70;;
50379;SDS011;37474;59.468;18.040;2023-04-03T14:07:34;3.20;;;0.50;;
50379;SDS011;37474;59.468;18.040;2023-04-03T14:10:03;4.00;;;0.70;;
50379;SDS011;37474;59.468;18.040;2023-04-03T14:12:34;2.00;;;0.83;;
50379;SDS011;37474;59.468;18.040;2023-04-03T14:15:14;6.07;;;0.70;;
50379;SDS011;37474;59.468;18.040;2023-04-03T14:17:47;3.17;;;0.63;;
50379;SDS011;37474;59.468;18.040;2023-04-03T14:20:15;1.80;;;0.57;;
50379;SDS011;37474;59.468;18.040;2023-04-03T14:22:44;2.95;;;0.60;;
50379;SDS011;37474;59.468;18.040;2023-04-03T14:25:14;3.88;;;0.63;;
50379;SDS011;37474;59.468;18.040;2023-04-03T14:27:43;3.30;;;0.70;;
50379;SDS011;37474;59.468;18.040;2023-04-03T14:30:14;3.40;;;0.70;;
50379;SDS011;37474;59.468;18.040;2023-04-03T14:32:49;2.27;;;0.70;;
50379;SDS011;37474;59.468;18.040;2023-04-03T14:35:19;2.25;;;0.40;;
50379;SDS011;37474;59.468;18.040;2023-04-03T14:37:48;3.77;;;0.77;;
50379;SDS011;37474;59.468;18.040;2023-04-03T14:40:17;1.37;;;0.50;;
50379;SDS011;37474;59.468;18.040;2023-04-03T14:42:46;5.93;;;0.82;;
50379;SDS011;37474;59.468;18.040;2023-04-03T14:45:16;1.73;;;0.50;;
50379;SDS011;37474;59.468;18.040;2023-04-03T14:47:47;4.13;;;1.07;;
50379;SDS011;37474;59.468;18.040;2023-04-03T14:50:17;2.83;;;0.50;;
50379;SDS011;37474;59.468;18.040;2023-04-03T14:52:49;2.73;;;0.60;;
50379;SDS011;37474;59.468;18.040;2023-04-03T14:55:20;1.83;;;0.70;;
50379;SDS011;37474;59.468;18.040;2023-04-03T14:57:50;2.55;;;0.60;;
50379;SDS011;37474;59.468;18.040;2023-04-03T15:00:20;1.93;;;0.73;;
50379;SDS011;37474;59.468;18.040;2023-04-03T15:02:49;7.30;;;0.67;;
50379;SDS011;37474;59.468;18.040;2023-04-03T15:05:18;2.87;;;1.03;;
50379;SDS011;37474;59.468;18.040;2023-04-03T15:07:47;6.13;;;0.80;;
50379;SDS011;37474;59.468;18.040;2023-04-03T15:10:18;4.23;;;0.40;;
50379;SDS011;37474;59.468;18.040;2023-04-03T15:12:47;3.67;;;0.80;;
50379;SDS011;37474;59.468;18.040;2023-04-03T15:15:16;4.43;;;0.50;;
50379;SDS011;37474;59.468;18.040;2023-04-03T15:17:49;3.60;;;0.60;;
50379;SDS011;37474;59.468;18.040;2023-04-03T15:20:21;4.30;;;0.60;;
50379;SDS011;37474;59.468;18.040;2023-04-03T15:22:53;5.87;;;0.77;;
50379;SDS011;37474;59.468;18.040;2023-04-03T15:25:26;4.70;;;0.63;;
50379;SDS011;37474;59.468;18.040;2023-04-03T15:27:56;2.33;;;0.80;;
50379;SDS011;37474;59.468;18.040;2023-04-03T15:30:36;4.17;;;0.70;;
50379;SDS011;37474;59.468;18.040;2023-04-03T15:33:08;3.47;;;0.60;;
50379;SDS011;37474;59.468;18.040;2023-04-03T15:35:36;3.07;;;0.70;;
50379;SDS011;37474;59.468;18.040;2023-04-03T15:38:04;5.13;;;0.70;;
50379;SDS011;37474;59.468;18.040;2023-04-03T15:40:32;2.10;;;0.60;;
50379;SDS011;37474;59.468;18.040;2023-04-03T15:43:00;5.23;;;0.83;;